createdAt,value
2023-12-19T00:01:58.220Z,2.47
2023-12-19T00:04:27.074Z,2.60
2023-12-19T00:06:55.665Z,2.33
2023-12-19T00:09:24.235Z,2.60
2023-12-19T00:11:52.604Z,2.30
2023-12-19T00:14:22.778Z,2.27
2023-12-19T00:16:51.885Z,2.37
2023-12-19T00:19:20.651Z,2.13
2023-12-19T00:21:49.229Z,2.40
2023-12-19T00:24:17.773Z,2.33
2023-12-19T00:26:46.148Z,2.57
2023-12-19T00:29:19.206Z,2.60
2023-12-19T00:31:52.880Z,2.50
2023-12-19T00:34:22.352Z,2.80
2023-12-19T00:36:52.784Z,2.47
2023-12-19T00:39:21.244Z,2.40
2023-12-19T00:41:51.739Z,2.50
2023-12-19T00:44:20.609Z,2.83
2023-12-19T00:46:51.032Z,2.83
2023-12-19T00:49:19.536Z,2.57
2023-12-19T00:51:47.879Z,2.40
2023-12-19T00:54:16.415Z,3.30
2023-12-19T00:56:44.856Z,3.80
2023-12-19T00:59:13.111Z,3.43
2023-12-19T01:01:41.543Z,2.97
2023-12-19T01:04:12.435Z,3.37
2023-12-19T01:06:42.349Z,4.40
2023-12-19T01:09:11.216Z,3.70
2023-12-19T01:11:39.789Z,3.87
2023-12-19T01:14:08.220Z,3.70
2023-12-19T01:16:36.863Z,3.43
2023-12-19T01:19:08.248Z,3.93
2023-12-19T01:21:38.208Z,4.30
2023-12-19T01:24:07.406Z,4.17
2023-12-19T01:26:35.819Z,4.60
2023-12-19T01:29:04.798Z,4.97
2023-12-19T01:31:35.647Z,4.40
2023-12-19T01:34:04.072Z,4.90
2023-12-19T01:36:33.325Z,5.00
2023-12-19T01:39:03.295Z,4.97
2023-12-19T01:41:32.320Z,5.13
2023-12-19T01:44:00.850Z,4.47
2023-12-19T01:46:29.966Z,4.97
2023-12-19T01:49:00.895Z,5.17
2023-12-19T01:51:29.913Z,4.90
2023-12-19T01:53:59.715Z,4.73
2023-12-19T01:56:29.856Z,5.57
2023-12-19T01:58:59.097Z,4.97
2023-12-19T02:01:27.992Z,4.80
2023-12-19T02:03:56.780Z,4.83
2023-12-19T02:06:26.085Z,4.73
2023-12-19T02:08:54.423Z,4.60
2023-12-19T02:11:22.950Z,5.03
2023-12-19T02:13:52.867Z,5.20
2023-12-19T02:16:21.277Z,5.47
2023-12-19T02:19:02.488Z,5.00
2023-12-19T02:21:31.752Z,4.83
2023-12-19T02:24:01.972Z,5.77
2023-12-19T02:26:30.684Z,5.00
2023-12-19T02:28:59.458Z,5.37
2023-12-19T02:31:28.248Z,5.03
2023-12-19T02:33:56.918Z,5.07
2023-12-19T02:36:25.793Z,5.57
2023-12-19T02:38:54.077Z,5.53
2023-12-19T02:41:24.049Z,5.03
2023-12-19T02:43:54.622Z,4.90
2023-12-19T02:46:24.690Z,5.17
2023-12-19T02:48:53.436Z,5.30
2023-12-19T02:51:23.048Z,5.50
2023-12-19T02:53:52.890Z,4.90
2023-12-19T02:56:21.411Z,5.40
2023-12-19T02:58:51.176Z,4.90
2023-12-19T03:01:22.468Z,5.53
2023-12-19T03:03:51.043Z,5.30
2023-12-19T03:06:19.841Z,5.20
2023-12-19T03:08:49.121Z,6.37
2023-12-19T03:11:17.635Z,5.90
2023-12-19T03:13:46.464Z,5.73
2023-12-19T03:16:16.207Z,5.70
2023-12-19T03:18:44.600Z,5.90
2023-12-19T03:21:13.077Z,5.67
2023-12-19T03:23:41.889Z,6.03
2023-12-19T03:26:10.301Z,5.60
2023-12-19T03:28:38.961Z,6.47
2023-12-19T03:31:07.406Z,5.63
2023-12-19T03:33:37.374Z,6.17
2023-12-19T03:36:06.872Z,5.77
2023-12-19T03:38:36.815Z,5.70
2023-12-19T03:41:05.525Z,6.27
2023-12-19T03:43:33.737Z,5.97
2023-12-19T03:46:03.968Z,5.03
2023-12-19T03:48:32.593Z,6.27
2023-12-19T03:51:02.681Z,6.63
2023-12-19T03:53:31.247Z,6.20
2023-12-19T03:55:59.806Z,6.53
2023-12-19T03:58:28.207Z,6.97
2023-12-19T04:00:56.769Z,6.23
2023-12-19T04:03:25.094Z,6.13
2023-12-19T04:05:53.452Z,6.40
2023-12-19T04:08:23.468Z,6.17
2023-12-19T04:10:51.703Z,5.40
2023-12-19T04:13:20.309Z,7.07
2023-12-19T04:15:49.030Z,6.50
2023-12-19T04:18:17.690Z,7.13
2023-12-19T04:20:46.033Z,6.00
2023-12-19T04:23:14.688Z,6.37
2023-12-19T04:25:44.766Z,6.40
2023-12-19T04:28:13.094Z,5.83
2023-12-19T04:30:41.489Z,6.83
2023-12-19T04:33:09.996Z,6.87
2023-12-19T04:35:38.502Z,7.13
2023-12-19T04:38:06.874Z,7.33
2023-12-19T04:40:35.217Z,7.93
2023-12-19T04:43:05.232Z,6.80
2023-12-19T04:45:33.944Z,6.30
2023-12-19T04:48:02.371Z,7.37
2023-12-19T04:50:30.925Z,6.80
2023-12-19T04:52:59.271Z,7.53
2023-12-19T04:55:27.569Z,7.37
2023-12-19T04:57:56.221Z,7.50
2023-12-19T05:00:26.104Z,7.90
2023-12-19T05:02:56.749Z,7.70
2023-12-19T05:05:26.395Z,7.57
2023-12-19T05:07:54.739Z,7.47
2023-12-19T05:10:23.247Z,7.33
2023-12-19T05:12:51.685Z,7.53
2023-12-19T05:15:20.596Z,7.70
2023-12-19T05:17:50.682Z,6.97
2023-12-19T05:20:19.499Z,7.43
2023-12-19T05:22:47.957Z,8.40
2023-12-19T05:25:16.237Z,7.20
2023-12-19T05:27:45.257Z,7.33
2023-12-19T05:30:14.778Z,7.60
2023-12-19T05:32:43.533Z,7.37
2023-12-19T05:35:13.712Z,7.60
2023-12-19T05:37:41.968Z,6.47
2023-12-19T05:40:11.565Z,7.67
2023-12-19T05:42:40.090Z,7.17
2023-12-19T05:45:09.925Z,6.07
2023-12-19T05:47:38.995Z,7.13
2023-12-19T05:50:08.285Z,7.73
2023-12-19T05:52:38.193Z,7.43
2023-12-19T05:55:07.165Z,7.13
2023-12-19T05:57:35.520Z,6.57
2023-12-19T06:00:06.646Z,5.97
2023-12-19T06:02:36.746Z,7.60
2023-12-19T06:05:08.566Z,8.47
2023-12-19T06:07:39.329Z,6.77
2023-12-19T06:10:11.693Z,7.50
2023-12-19T06:12:40.653Z,7.13
2023-12-19T06:15:12.882Z,7.20
2023-12-19T06:17:43.828Z,7.40
2023-12-19T06:20:12.835Z,7.60
2023-12-19T06:22:44.428Z,7.03
2023-12-19T06:25:13.272Z,6.47
2023-12-19T06:27:43.837Z,7.00
2023-12-19T06:30:22.725Z,6.30
2023-12-19T06:32:57.002Z,6.17
2023-12-19T06:35:25.946Z,6.40
2023-12-19T06:37:56.123Z,6.70
2023-12-19T06:40:25.057Z,7.57
2023-12-19T06:43:09.686Z,7.57
2023-12-19T06:45:38.420Z,7.00
2023-12-19T06:48:08.097Z,8.10
2023-12-19T06:50:43.457Z,8.07
2023-12-19T06:53:36.791Z,8.57
2023-12-19T06:56:11.660Z,7.93
2023-12-19T06:58:40.105Z,9.10
2023-12-19T07:01:09.593Z,8.63
2023-12-19T07:03:38.073Z,7.93
2023-12-19T07:06:07.328Z,7.73
2023-12-19T07:08:46.141Z,7.60
2023-12-19T07:11:19.023Z,9.07
2023-12-19T07:13:50.055Z,8.30
2023-12-19T07:16:21.230Z,7.97
2023-12-19T07:18:50.407Z,8.20
2023-12-19T07:21:25.915Z,8.37
2023-12-19T07:23:56.441Z,8.00
2023-12-19T07:26:26.277Z,7.53
2023-12-19T07:28:55.045Z,8.03
2023-12-19T07:31:29.033Z,8.83
2023-12-19T07:33:59.651Z,9.40
2023-12-19T07:36:29.162Z,6.83
2023-12-19T07:38:59.519Z,6.83
2023-12-19T07:41:28.927Z,8.20
2023-12-19T07:43:58.305Z,7.43
2023-12-19T07:46:27.002Z,6.97
2023-12-19T07:48:56.797Z,8.27
2023-12-19T07:51:25.659Z,7.57
2023-12-19T07:53:55.909Z,7.47
2023-12-19T07:56:26.034Z,8.03
2023-12-19T07:58:56.061Z,8.10
2023-12-19T08:01:24.693Z,7.67
2023-12-19T08:03:53.170Z,8.57
2023-12-19T08:06:22.356Z,7.03
2023-12-19T08:08:52.801Z,8.03
2023-12-19T08:11:21.319Z,6.90
2023-12-19T08:13:52.225Z,6.63
2023-12-19T08:16:22.390Z,6.97
2023-12-19T08:18:52.761Z,7.30
2023-12-19T08:21:21.449Z,7.03
2023-12-19T08:23:50.224Z,7.03
2023-12-19T08:26:18.821Z,7.80
2023-12-19T08:28:47.833Z,7.63
2023-12-19T08:31:18.260Z,7.20
2023-12-19T08:33:50.287Z,6.83
2023-12-19T08:36:33.387Z,7.70
2023-12-19T08:39:05.749Z,7.83
2023-12-19T08:41:34.865Z,7.27
2023-12-19T08:44:03.247Z,7.63
2023-12-19T08:46:34.288Z,7.27
2023-12-19T08:49:03.834Z,8.23
2023-12-19T08:51:32.840Z,7.40
2023-12-19T08:54:02.056Z,8.53
2023-12-19T08:56:30.874Z,8.60
2023-12-19T08:58:59.165Z,8.60
2023-12-19T09:01:28.096Z,7.77
2023-12-19T09:03:58.258Z,8.67
2023-12-19T09:06:26.780Z,8.30
2023-12-19T09:08:55.466Z,8.37
2023-12-19T09:11:24.793Z,8.53
2023-12-19T09:13:53.097Z,8.27
2023-12-19T09:16:21.415Z,8.13
2023-12-19T09:18:50.450Z,8.03
2023-12-19T09:21:20.413Z,7.33
2023-12-19T09:23:49.253Z,7.70
2023-12-19T09:26:17.624Z,8.43
2023-12-19T09:28:47.162Z,7.03
2023-12-19T09:31:17.688Z,6.77
2023-12-19T09:33:46.324Z,7.17
2023-12-19T09:36:26.142Z,7.70
2023-12-19T09:38:55.777Z,7.70
2023-12-19T09:41:24.235Z,6.63
2023-12-19T09:43:52.518Z,8.00
2023-12-19T09:46:21.284Z,7.87
2023-12-19T09:48:51.684Z,7.50
2023-12-19T09:51:28.794Z,6.70
2023-12-19T09:53:57.726Z,6.83
2023-12-19T09:56:27.271Z,7.23
2023-12-19T09:58:56.999Z,6.43
2023-12-19T10:01:28.454Z,6.57
2023-12-19T10:03:58.072Z,6.73
2023-12-19T10:06:31.136Z,6.77
2023-12-19T10:09:04.530Z,6.67
2023-12-19T10:11:32.923Z,6.97
2023-12-19T10:14:12.488Z,7.07
2023-12-19T10:16:42.898Z,7.27
2023-12-19T10:19:15.072Z,7.40
2023-12-19T10:21:44.897Z,7.20
2023-12-19T10:24:15.523Z,6.80
2023-12-19T10:26:43.936Z,6.70
2023-12-19T10:29:13.635Z,6.73
2023-12-19T10:31:42.326Z,6.90
2023-12-19T10:34:20.204Z,7.97
2023-12-19T10:36:50.709Z,7.17
2023-12-19T10:39:21.252Z,7.47
2023-12-19T10:41:49.988Z,6.90
2023-12-19T10:44:20.473Z,6.53
2023-12-19T10:46:50.467Z,7.77
2023-12-19T10:49:19.128Z,6.47
2023-12-19T10:51:58.074Z,6.83
2023-12-19T10:54:28.316Z,6.80
2023-12-19T10:57:07.009Z,6.83
2023-12-19T10:59:48.114Z,6.77
2023-12-19T11:02:30.172Z,7.67
2023-12-19T11:05:07.312Z,7.43
2023-12-19T11:07:39.920Z,6.80
2023-12-19T11:10:12.918Z,6.90
2023-12-19T11:12:42.922Z,7.27
2023-12-19T11:15:12.409Z,6.63
2023-12-19T11:17:48.490Z,7.00
2023-12-19T11:20:25.016Z,6.90
2023-12-19T11:23:06.112Z,7.00
2023-12-19T11:25:40.892Z,6.87
2023-12-19T11:28:10.540Z,7.37
2023-12-19T11:30:41.816Z,6.83
2023-12-19T11:33:13.434Z,6.90
2023-12-19T11:35:42.562Z,6.97
2023-12-19T11:38:30.643Z,9.27
2023-12-19T11:40:59.893Z,7.27
2023-12-19T11:43:55.880Z,6.87
2023-12-19T11:46:26.944Z,6.97
2023-12-19T11:48:57.197Z,7.07
2023-12-19T11:51:51.666Z,7.87
2023-12-19T11:54:23.256Z,9.93
2023-12-19T11:57:02.934Z,9.73
2023-12-19T11:59:53.229Z,6.77
2023-12-19T12:02:31.746Z,6.87
2023-12-19T12:05:11.624Z,7.13
2023-12-19T12:07:45.057Z,7.17
2023-12-19T12:10:17.910Z,6.90
2023-12-19T12:12:47.007Z,7.03
2023-12-19T12:15:19.002Z,6.97
2023-12-19T12:17:48.073Z,7.13
2023-12-19T12:20:17.773Z,6.80
2023-12-19T12:22:46.818Z,7.20
2023-12-19T12:25:19.586Z,7.50
2023-12-19T12:27:48.302Z,6.43
2023-12-19T12:30:17.237Z,6.67
2023-12-19T12:32:47.695Z,7.00
2023-12-19T12:35:29.370Z,6.20
2023-12-19T12:37:59.792Z,6.53
2023-12-19T12:40:29.908Z,7.17
2023-12-19T12:43:51.308Z,6.23
2023-12-19T12:46:23.092Z,6.27
2023-12-19T12:49:02.208Z,6.50
2023-12-19T12:51:32.220Z,7.50
2023-12-19T12:54:04.661Z,6.40
2023-12-19T12:56:38.202Z,6.17
2023-12-19T12:59:11.099Z,6.37
2023-12-19T13:01:41.282Z,6.33
2023-12-19T13:04:10.331Z,6.07
2023-12-19T13:06:49.890Z,6.40
2023-12-19T13:09:39.246Z,6.93
2023-12-19T13:12:10.581Z,6.03
2023-12-19T13:14:40.458Z,6.03
2023-12-19T13:17:17.684Z,6.17
2023-12-19T13:19:46.261Z,6.57
2023-12-19T13:22:14.869Z,6.33
2023-12-19T13:24:46.012Z,6.23
2023-12-19T13:27:17.517Z,6.10
2023-12-19T13:29:46.081Z,6.17
2023-12-19T13:32:14.938Z,6.17
2023-12-19T13:34:43.837Z,5.83
2023-12-19T13:37:12.735Z,5.60
2023-12-19T13:39:43.304Z,6.00
2023-12-19T13:42:11.710Z,5.80
2023-12-19T13:44:42.405Z,5.93
2023-12-19T13:47:11.580Z,5.80
2023-12-19T13:49:40.414Z,5.63
2023-12-19T13:52:09.474Z,6.03
2023-12-19T13:54:40.770Z,6.00
2023-12-19T13:57:10.020Z,5.67
2023-12-19T13:59:39.283Z,5.30
2023-12-19T14:02:12.139Z,5.40
2023-12-19T14:04:43.023Z,5.53
2023-12-19T14:07:15.476Z,5.53
2023-12-19T14:09:44.223Z,5.97
2023-12-19T14:12:27.375Z,5.57
2023-12-19T14:14:57.701Z,5.50
2023-12-19T14:17:31.398Z,5.60
2023-12-19T14:20:01.615Z,5.83
2023-12-19T14:22:30.985Z,5.43
2023-12-19T14:25:01.011Z,6.57
2023-12-19T14:27:30.302Z,5.57
2023-12-19T14:33:14.861Z,6.00
2023-12-19T14:35:46.999Z,5.80
2023-12-19T14:38:17.973Z,5.97
2023-12-19T14:40:54.225Z,5.80
2023-12-19T14:43:45.450Z,6.40
2023-12-19T14:46:36.785Z,5.93
2023-12-19T16:53:23.922Z,6.00
2023-12-19T16:55:52.388Z,5.80
2023-12-19T16:58:33.422Z,5.03
2023-12-19T17:01:11.774Z,5.97
2023-12-19T17:03:51.337Z,5.23
2023-12-19T17:06:33.324Z,5.53
2023-12-19T17:09:04.953Z,6.20
2023-12-19T17:11:33.505Z,5.93
2023-12-19T17:14:02.722Z,6.47
2023-12-19T17:16:34.476Z,6.57
2023-12-19T17:19:04.049Z,5.47
2023-12-19T17:21:33.105Z,20.20
2023-12-19T17:24:04.463Z,5.93
2023-12-19T17:26:35.711Z,5.73
2023-12-19T17:29:04.462Z,5.93
2023-12-19T17:31:34.927Z,5.40
2023-12-19T17:34:05.504Z,5.30
2023-12-19T17:36:35.401Z,5.80
2023-12-19T17:39:06.300Z,6.00
2023-12-19T17:41:38.361Z,5.93
2023-12-19T17:44:08.451Z,5.60
2023-12-19T17:46:37.870Z,5.80
2023-12-19T17:49:06.543Z,5.53
2023-12-19T17:51:35.310Z,5.50
2023-12-19T17:54:09.162Z,6.17
2023-12-19T17:56:37.770Z,5.30
2023-12-19T17:59:12.465Z,5.70
2023-12-19T18:01:44.835Z,4.97
2023-12-19T18:04:13.811Z,5.30
2023-12-19T18:06:42.493Z,5.30
2023-12-19T18:09:12.670Z,5.60
2023-12-19T18:11:41.992Z,5.37
2023-12-19T18:14:10.557Z,5.80
2023-12-19T18:16:40.303Z,5.70
2023-12-19T18:19:08.872Z,5.20
2023-12-19T18:21:37.660Z,5.87
2023-12-19T18:24:08.569Z,5.50
2023-12-19T18:26:41.010Z,7.07
2023-12-19T18:29:12.854Z,5.90
2023-12-19T18:31:43.490Z,5.73
2023-12-19T18:34:12.342Z,5.97
2023-12-19T18:36:41.532Z,5.90
2023-12-19T18:39:11.648Z,5.93
2023-12-19T18:41:41.744Z,5.00
2023-12-19T18:44:10.240Z,5.67
2023-12-19T18:46:42.385Z,5.87
2023-12-19T18:49:12.639Z,5.30
2023-12-19T18:51:41.917Z,5.77
2023-12-19T18:54:10.708Z,6.67
2023-12-19T18:56:43.956Z,5.80
2023-12-19T18:59:13.361Z,5.70
2023-12-19T19:01:42.143Z,5.50
2023-12-19T19:04:11.597Z,5.83
2023-12-19T19:06:43.699Z,5.50
2023-12-19T19:09:13.224Z,5.73
2023-12-19T19:11:46.549Z,5.87
2023-12-19T19:14:15.496Z,5.80
2023-12-19T19:16:44.350Z,5.27
2023-12-19T19:19:13.615Z,5.53
2023-12-19T19:21:47.916Z,5.33
2023-12-19T19:24:17.126Z,5.77
2023-12-19T19:26:54.602Z,6.80
2023-12-19T19:29:26.972Z,6.03
2023-12-19T19:31:57.239Z,5.63
2023-12-19T19:34:27.242Z,5.87
2023-12-19T19:36:56.784Z,5.87
2023-12-19T19:39:29.124Z,5.60
2023-12-19T19:42:00.979Z,6.33
2023-12-19T19:44:30.836Z,5.40
2023-12-19T19:47:00.223Z,5.77
2023-12-19T19:49:31.543Z,5.07
2023-12-19T19:52:00.398Z,6.10
2023-12-19T19:54:29.118Z,5.40
2023-12-19T19:56:59.726Z,5.73
2023-12-19T19:59:28.281Z,5.57
2023-12-19T20:01:58.769Z,5.33
2023-12-19T20:04:30.462Z,6.90
2023-12-19T20:06:59.740Z,6.60
2023-12-19T20:09:29.222Z,7.03
2023-12-19T20:12:02.947Z,6.00
2023-12-19T20:14:32.187Z,5.73
2023-12-19T20:17:06.570Z,7.57
2023-12-19T20:19:36.580Z,6.53
2023-12-19T20:22:06.239Z,5.53
2023-12-19T20:24:35.472Z,5.87
2023-12-19T20:27:08.361Z,6.40
2023-12-19T20:29:40.733Z,6.80
2023-12-19T20:32:09.558Z,5.90
2023-12-19T20:34:38.771Z,6.30
2023-12-19T20:37:07.376Z,6.80
2023-12-19T20:39:36.160Z,5.57
2023-12-19T20:42:07.669Z,6.00
2023-12-19T20:44:37.485Z,5.90
2023-12-19T20:47:12.123Z,5.50
2023-12-19T20:49:41.888Z,5.23
2023-12-19T20:52:10.900Z,5.03
2023-12-19T20:54:39.472Z,5.30
2023-12-19T20:57:10.924Z,4.87
2023-12-19T21:00:45.013Z,5.63
2023-12-19T21:03:16.352Z,5.73
2023-12-19T21:05:50.754Z,5.83
2023-12-19T21:08:19.589Z,5.17
2023-12-19T21:10:49.901Z,5.93
2023-12-19T21:13:23.986Z,5.43
2023-12-19T21:15:55.301Z,6.27
2023-12-19T21:18:30.726Z,5.20
2023-12-19T21:21:06.138Z,5.90
2023-12-19T21:23:57.016Z,5.43
2023-12-19T21:26:36.337Z,5.53
2023-12-19T21:29:20.741Z,5.10
2023-12-19T21:32:03.768Z,5.67
2023-12-19T21:35:02.822Z,5.27
2023-12-19T21:40:46.583Z,5.23
2023-12-19T21:43:28.358Z,5.20
2023-12-19T21:45:59.115Z,5.13
2023-12-19T21:48:29.539Z,5.30
2023-12-19T21:50:59.389Z,5.20
2023-12-19T21:53:28.558Z,5.10
2023-12-19T21:55:58.502Z,5.07
2023-12-19T21:58:27.532Z,5.33
2023-12-19T22:00:58.681Z,5.47
2023-12-19T22:03:27.142Z,5.13
2023-12-19T22:05:55.630Z,5.03
2023-12-19T22:08:25.065Z,5.33
2023-12-19T22:10:53.997Z,4.77
2023-12-19T22:13:23.083Z,4.17
2023-12-19T22:15:52.034Z,5.03
2023-12-19T22:18:23.471Z,5.10
2023-12-19T22:20:53.609Z,4.03
2023-12-19T22:23:22.697Z,4.40
2023-12-19T22:25:51.304Z,4.57
2023-12-19T22:28:20.698Z,4.47
2023-12-19T22:30:50.092Z,4.63
2023-12-19T22:33:19.290Z,5.03
2023-12-19T22:35:49.769Z,4.70
2023-12-19T22:38:19.093Z,4.40
2023-12-19T22:40:48.085Z,5.00
2023-12-19T22:43:16.976Z,4.63
2023-12-19T22:45:46.694Z,4.90
2023-12-19T22:48:15.569Z,5.10
2023-12-19T22:50:44.317Z,4.10
2023-12-19T22:53:14.569Z,4.60
2023-12-19T22:55:46.238Z,4.23
2023-12-19T22:58:16.275Z,4.40
2023-12-19T23:00:45.763Z,4.60
2023-12-19T23:03:18.630Z,4.90
2023-12-19T23:05:47.709Z,4.40
2023-12-19T23:08:19.044Z,4.43
2023-12-19T23:10:47.739Z,4.73
2023-12-19T23:13:16.547Z,4.63
2023-12-19T23:15:47.647Z,4.37
2023-12-19T23:18:16.731Z,4.43
2023-12-19T23:20:45.851Z,4.37
2023-12-19T23:23:15.219Z,4.37
2023-12-19T23:25:46.327Z,4.40
2023-12-19T23:28:14.825Z,4.20
2023-12-19T23:30:43.735Z,4.50
2023-12-19T23:33:12.222Z,4.40
2023-12-19T23:35:40.753Z,4.50
2023-12-19T23:38:09.192Z,3.93
2023-12-19T23:40:38.203Z,3.43
2023-12-19T23:43:08.773Z,4.20
2023-12-19T23:45:37.348Z,4.67
2023-12-19T23:48:08.361Z,4.37
2023-12-19T23:50:37.186Z,4.10
2023-12-19T23:53:05.958Z,4.37
2023-12-19T23:55:35.024Z,4.20
2023-12-19T23:58:05.657Z,4.23
